sensor_id;sensor_type;location;lat;lon;timestamp;pressure;altitude;pressure_sealevel;temperature;humidity
9774;BME280;4926;42.670;23.316;2024-01-15T00:01:26;93942.91;;;-1.77;66.07
9774;BME280;4926;42.670;23.316;2024-01-15T00:03:52;93951.47;;;-1.55;65.87
9774;BME280;4926;42.670;23.316;2024-01-15T00:06:17;93932.78;;;-1.74;66.37
9774;BME280;4926;42.670;23.316;2024-01-15T00:08:43;93952.13;;;-1.70;65.74
9774;BME280;4926;42.670;23.316;2024-01-15T00:11:08;93933.63;;;-1.86;67.24
9774;BME280;4926;42.670;23.316;2024-01-15T00:13:34;93935.88;;;-1.96;67.56
9774;BME280;4926;42.670;23.316;2024-01-15T00:15:59;93938.53;;;-1.98;68.03
9774;BME280;4926;42.670;23.316;2024-01-15T00:18:25;93940.81;;;-1.92;67.67
9774;BME280;4926;42.670;23.316;2024-01-15T00:20:53;93932.81;;;-1.88;67.91
9774;BME280;4926;42.670;23.316;2024-01-15T00:23:18;93929.28;;;-1.91;67.82
9774;BME280;4926;42.670;23.316;2024-01-15T00:25:44;93938.66;;;-1.80;67.09
9774;BME280;4926;42.670;23.316;2024-01-15T00:28:09;93942.41;;;-1.73;67.13
9774;BME280;4926;42.670;23.316;2024-01-15T00:30:35;93944.91;;;-1.64;66.71
9774;BME280;4926;42.670;23.316;2024-01-15T00:33:00;93937.09;;;-1.56;66.53
9774;BME280;4926;42.670;23.316;2024-01-15T00:35:26;93935.94;;;-1.51;66.47
9774;BME280;4926;42.670;23.316;2024-01-15T00:37:51;93934.84;;;-1.46;66.19
9774;BME280;4926;42.670;23.316;2024-01-15T00:40:17;93932.81;;;-1.45;66.03
9774;BME280;4926;42.670;23.316;2024-01-15T00:42:42;93930.16;;;-1.43;65.54
9774;BME280;4926;42.670;23.316;2024-01-15T00:45:08;93936.00;;;-1.35;65.38
9774;BME280;4926;42.670;23.316;2024-01-15T00:47:34;93944.09;;;-1.37;65.20
9774;BME280;4926;42.670;23.316;2024-01-15T00:50:00;93937.06;;;-1.42;65.98
9774;BME280;4926;42.670;23.316;2024-01-15T00:52:26;93934.16;;;-1.60;66.56
9774;BME280;4926;42.670;23.316;2024-01-15T00:54:51;93940.66;;;-1.67;66.60
9774;BME280;4926;42.670;23.316;2024-01-15T00:57:17;93935.56;;;-1.88;67.63
9774;BME280;4926;42.670;23.316;2024-01-15T00:59:44;93937.88;;;-1.83;67.37
9774;BME280;4926;42.670;23.316;2024-01-15T01:02:10;93933.63;;;-1.86;67.73
9774;BME280;4926;42.670;23.316;2024-01-15T01:04:35;93932.91;;;-1.72;67.60
9774;BME280;4926;42.670;23.316;2024-01-15T01:07:04;93935.19;;;-1.67;66.67
9774;BME280;4926;42.670;23.316;2024-01-15T01:09:29;93936.50;;;-1.68;66.91
9774;BME280;4926;42.670;23.316;2024-01-15T01:11:56;93931.19;;;-1.80;66.73
9774;BME280;4926;42.670;23.316;2024-01-15T01:14:22;93924.78;;;-1.70;66.50
9774;BME280;4926;42.670;23.316;2024-01-15T01:16:47;93932.03;;;-1.61;66.79
9774;BME280;4926;42.670;23.316;2024-01-15T01:19:13;93919.41;;;-1.68;66.39
9774;BME280;4926;42.670;23.316;2024-01-15T01:21:38;93925.31;;;-1.74;66.32
9774;BME280;4926;42.670;23.316;2024-01-15T01:24:04;93922.28;;;-1.80;66.12
9774;BME280;4926;42.670;23.316;2024-01-15T01:26:30;93920.41;;;-2.05;66.08
9774;BME280;4926;42.670;23.316;2024-01-15T01:28:55;93922.69;;;-2.29;68.05
9774;BME280;4926;42.670;23.316;2024-01-15T01:31:21;93919.50;;;-2.23;67.52
9774;BME280;4926;42.670;23.316;2024-01-15T01:33:47;93914.97;;;-2.32;67.30
9774;BME280;4926;42.670;23.316;2024-01-15T01:36:15;93902.34;;;-2.26;67.29
9774;BME280;4926;42.670;23.316;2024-01-15T01:38:41;93903.94;;;-2.21;66.77
9774;BME280;4926;42.670;23.316;2024-01-15T01:41:07;93908.41;;;-2.13;67.02
9774;BME280;4926;42.670;23.316;2024-01-15T01:43:33;93903.31;;;-2.05;66.61
9774;BME280;4926;42.670;23.316;2024-01-15T01:46:00;93903.25;;;-2.21;66.86
9774;BME280;4926;42.670;23.316;2024-01-15T01:48:26;93902.34;;;-2.26;66.60
9774;BME280;4926;42.670;23.316;2024-01-15T01:50:59;93904.97;;;-2.28;66.46
9774;BME280;4926;42.670;23.316;2024-01-15T01:53:26;93894.16;;;-2.26;66.68
9774;BME280;4926;42.670;23.316;2024-01-15T01:55:54;93900.34;;;-2.39;67.24
9774;BME280;4926;42.670;23.316;2024-01-15T01:58:21;93894.88;;;-2.53;68.28
9774;BME280;4926;42.670;23.316;2024-01-15T02:00:47;93883.88;;;-2.55;67.73
9774;BME280;4926;42.670;23.316;2024-01-15T02:03:13;93898.00;;;-2.72;68.47
9774;BME280;4926;42.670;23.316;2024-01-15T02:05:39;93887.00;;;-2.74;68.41
9774;BME280;4926;42.670;23.316;2024-01-15T02:08:05;93893.38;;;-2.83;69.32
9774;BME280;4926;42.670;23.316;2024-01-15T02:10:31;93896.28;;;-2.79;68.47
9774;BME280;4926;42.670;23.316;2024-01-15T02:12:57;93881.41;;;-3.03;69.29
9774;BME280;4926;42.670;23.316;2024-01-15T02:15:23;93870.34;;;-3.33;69.83
9774;BME280;4926;42.670;23.316;2024-01-15T02:17:59;93878.75;;;-3.29;69.46
9774;BME280;4926;42.670;23.316;2024-01-15T02:20:25;93870.06;;;-3.39;70.31
9774;BME280;4926;42.670;23.316;2024-01-15T02:22:51;93865.47;;;-3.48;71.83
9774;BME280;4926;42.670;23.316;2024-01-15T02:25:18;93853.25;;;-3.47;71.43
9774;BME280;4926;42.670;23.316;2024-01-15T02:27:43;93828.03;;;-3.47;71.31
9774;BME280;4926;42.670;23.316;2024-01-15T02:30:11;93817.03;;;-3.49;71.04
9774;BME280;4926;42.670;23.316;2024-01-15T02:32:37;93822.81;;;-3.43;70.94
9774;BME280;4926;42.670;23.316;2024-01-15T02:35:02;93819.00;;;-3.38;70.99
9774;BME280;4926;42.670;23.316;2024-01-15T02:37:28;93819.78;;;-3.22;70.51
9774;BME280;4926;42.670;23.316;2024-01-15T02:39:53;93831.22;;;-3.12;69.86
9774;BME280;4926;42.670;23.316;2024-01-15T02:42:19;93829.00;;;-3.15;70.32
9774;BME280;4926;42.670;23.316;2024-01-15T02:44:44;93824.25;;;-3.01;69.69
9774;BME280;4926;42.670;23.316;2024-01-15T02:47:12;93817.00;;;-2.97;69.34
9774;BME280;4926;42.670;23.316;2024-01-15T02:49:38;93822.03;;;-2.91;69.18
9774;BME280;4926;42.670;23.316;2024-01-15T02:52:04;93821.22;;;-2.80;69.29
9774;BME280;4926;42.670;23.316;2024-01-15T02:54:29;93820.31;;;-2.71;69.34
9774;BME280;4926;42.670;23.316;2024-01-15T02:56:55;93835.56;;;-2.66;68.16
9774;BME280;4926;42.670;23.316;2024-01-15T02:59:20;93815.56;;;-2.57;68.30
9774;BME280;4926;42.670;23.316;2024-01-15T03:01:46;93816.13;;;-2.44;67.78
9774;BME280;4926;42.670;23.316;2024-01-15T03:04:11;93814.06;;;-2.30;67.62
9774;BME280;4926;42.670;23.316;2024-01-15T03:06:36;93816.19;;;-2.29;67.02
9774;BME280;4926;42.670;23.316;2024-01-15T03:09:02;93814.66;;;-2.18;66.98
9774;BME280;4926;42.670;23.316;2024-01-15T03:11:28;93808.84;;;-2.10;66.86
9774;BME280;4926;42.670;23.316;2024-01-15T03:13:54;93797.59;;;-2.03;66.63
9774;BME280;4926;42.670;23.316;2024-01-15T03:16:20;93809.69;;;-1.92;66.41
9774;BME280;4926;42.670;23.316;2024-01-15T03:18:45;93804.38;;;-2.04;65.54
9774;BME280;4926;42.670;23.316;2024-01-15T03:21:11;93810.25;;;-2.09;66.34
9774;BME280;4926;42.670;23.316;2024-01-15T03:23:37;93812.47;;;-2.06;65.93
9774;BME280;4926;42.670;23.316;2024-01-15T03:26:02;93793.47;;;-2.04;65.86
9774;BME280;4926;42.670;23.316;2024-01-15T03:28:28;93797.97;;;-1.95;65.60
9774;BME280;4926;42.670;23.316;2024-01-15T03:30:55;93805.03;;;-1.90;65.79
9774;BME280;4926;42.670;23.316;2024-01-15T03:33:29;93782.47;;;-1.90;65.39
9774;BME280;4926;42.670;23.316;2024-01-15T03:35:54;93787.78;;;-1.79;65.81
9774;BME280;4926;42.670;23.316;2024-01-15T03:38:20;93785.16;;;-1.76;65.48
9774;BME280;4926;42.670;23.316;2024-01-15T03:40:45;93791.94;;;-1.77;65.12
9774;BME280;4926;42.670;23.316;2024-01-15T03:43:12;93787.88;;;-1.76;66.08
9774;BME280;4926;42.670;23.316;2024-01-15T03:45:37;93786.75;;;-1.71;65.80
9774;BME280;4926;42.670;23.316;2024-01-15T03:48:03;93788.69;;;-1.74;65.19
9774;BME280;4926;42.670;23.316;2024-01-15T03:50:28;93787.28;;;-1.75;66.30
9774;BME280;4926;42.670;23.316;2024-01-15T03:52:54;93792.31;;;-1.69;65.80
9774;BME280;4926;42.670;23.316;2024-01-15T03:55:19;93793.63;;;-1.70;65.83
9774;BME280;4926;42.670;23.316;2024-01-15T03:57:47;93794.22;;;-1.88;66.21
9774;BME280;4926;42.670;23.316;2024-01-15T04:00:14;93797.97;;;-1.95;65.96
9774;BME280;4926;42.670;23.316;2024-01-15T04:02:43;93797.47;;;-1.91;65.93
9774;BME280;4926;42.670;23.316;2024-01-15T04:05:09;93779.91;;;-2.02;66.35
9774;BME280;4926;42.670;23.316;2024-01-15T04:07:34;93769.94;;;-1.95;66.02
9774;BME280;4926;42.670;23.316;2024-01-15T04:10:00;93775.00;;;-1.90;66.16
9774;BME280;4926;42.670;23.316;2024-01-15T04:12:25;93769.44;;;-1.92;65.67
9774;BME280;4926;42.670;23.316;2024-01-15T04:14:51;93779.66;;;-1.92;66.18
9774;BME280;4926;42.670;23.316;2024-01-15T04:17:16;93770.66;;;-1.95;66.16
9774;BME280;4926;42.670;23.316;2024-01-15T04:19:45;93775.75;;;-2.03;66.03
9774;BME280;4926;42.670;23.316;2024-01-15T04:22:11;93762.81;;;-2.02;66.16
9774;BME280;4926;42.670;23.316;2024-01-15T04:24:37;93771.91;;;-1.98;66.49
9774;BME280;4926;42.670;23.316;2024-01-15T04:27:02;93759.47;;;-2.01;66.09
9774;BME280;4926;42.670;23.316;2024-01-15T04:29:28;93771.97;;;-1.96;66.85
9774;BME280;4926;42.670;23.316;2024-01-15T04:31:53;93773.56;;;-1.91;66.57
9774;BME280;4926;42.670;23.316;2024-01-15T04:34:19;93773.56;;;-1.91;66.26
9774;BME280;4926;42.670;23.316;2024-01-15T04:36:44;93773.66;;;-1.89;65.31
9774;BME280;4926;42.670;23.316;2024-01-15T04:39:10;93767.41;;;-1.91;65.92
9774;BME280;4926;42.670;23.316;2024-01-15T04:41:36;93768.81;;;-1.90;65.85
9774;BME280;4926;42.670;23.316;2024-01-15T04:44:02;93770.34;;;-1.87;65.79
9774;BME280;4926;42.670;23.316;2024-01-15T04:46:33;93771.06;;;-2.16;66.90
9774;BME280;4926;42.670;23.316;2024-01-15T04:48:58;93768.47;;;-2.57;67.82
9774;BME280;4926;42.670;23.316;2024-01-15T04:51:27;93765.53;;;-2.61;68.02
9774;BME280;4926;42.670;23.316;2024-01-15T04:53:52;93762.81;;;-2.75;69.08
9774;BME280;4926;42.670;23.316;2024-01-15T04:56:17;93760.41;;;-2.69;68.39
9774;BME280;4926;42.670;23.316;2024-01-15T04:58:43;93742.84;;;-2.93;69.27
9774;BME280;4926;42.670;23.316;2024-01-15T05:01:09;93755.03;;;-2.80;68.77
9774;BME280;4926;42.670;23.316;2024-01-15T05:03:35;93750.41;;;-2.92;68.91
9774;BME280;4926;42.670;23.316;2024-01-15T05:06:01;93745.38;;;-2.97;69.93
9774;BME280;4926;42.670;23.316;2024-01-15T05:08:26;93748.91;;;-3.08;70.25
9774;BME280;4926;42.670;23.316;2024-01-15T05:10:52;93740.44;;;-3.01;70.24
9774;BME280;4926;42.670;23.316;2024-01-15T05:13:17;93738.59;;;-2.82;70.13
9774;BME280;4926;42.670;23.316;2024-01-15T05:15:46;93731.59;;;-2.72;70.19
9774;BME280;4926;42.670;23.316;2024-01-15T05:18:11;93724.00;;;-2.60;69.92
9774;BME280;4926;42.670;23.316;2024-01-15T05:20:36;93727.78;;;-2.51;69.55
9774;BME280;4926;42.670;23.316;2024-01-15T05:23:02;93737.59;;;-2.46;69.14
9774;BME280;4926;42.670;23.316;2024-01-15T05:25:27;93738.44;;;-2.57;69.01
9774;BME280;4926;42.670;23.316;2024-01-15T05:27:58;93739.25;;;-2.55;68.72
9774;BME280;4926;42.670;23.316;2024-01-15T05:30:24;93745.88;;;-2.44;69.02
9774;BME280;4926;42.670;23.316;2024-01-15T05:32:50;93743.56;;;-2.50;68.94
9774;BME280;4926;42.670;23.316;2024-01-15T05:35:15;93728.13;;;-2.59;68.57
9774;BME280;4926;42.670;23.316;2024-01-15T05:37:44;93746.94;;;-2.65;69.29
9774;BME280;4926;42.670;23.316;2024-01-15T05:40:11;93738.56;;;-2.69;68.53
9774;BME280;4926;42.670;23.316;2024-01-15T05:42:36;93728.44;;;-2.66;69.81
9774;BME280;4926;42.670;23.316;2024-01-15T05:45:02;93724.84;;;-2.71;69.56
9774;BME280;4926;42.670;23.316;2024-01-15T05:47:30;93718.16;;;-2.68;69.07
9774;BME280;4926;42.670;23.316;2024-01-15T05:49:56;93724.09;;;-2.58;69.49
9774;BME280;4926;42.670;23.316;2024-01-15T05:52:22;93712.03;;;-2.53;69.33
9774;BME280;4926;42.670;23.316;2024-01-15T05:54:49;93713.63;;;-2.47;68.74
9774;BME280;4926;42.670;23.316;2024-01-15T05:57:15;93702.47;;;-2.38;68.45
9774;BME280;4926;42.670;23.316;2024-01-15T05:59:40;93709.69;;;-2.44;68.78
9774;BME280;4926;42.670;23.316;2024-01-15T06:02:08;93727.38;;;-2.45;68.80
9774;BME280;4926;42.670;23.316;2024-01-15T06:04:37;93711.72;;;-2.45;69.26
9774;BME280;4926;42.670;23.316;2024-01-15T06:07:02;93734.91;;;-2.30;70.43
9774;BME280;4926;42.670;23.316;2024-01-15T06:09:28;93726.91;;;-2.26;69.21
9774;BME280;4926;42.670;23.316;2024-01-15T06:11:54;93724.34;;;-2.22;68.77
9774;BME280;4926;42.670;23.316;2024-01-15T06:14:22;93721.25;;;-2.30;68.58
9774;BME280;4926;42.670;23.316;2024-01-15T06:16:48;93721.00;;;-2.21;68.21
9774;BME280;4926;42.670;23.316;2024-01-15T06:19:14;93724.84;;;-2.12;68.25
9774;BME280;4926;42.670;23.316;2024-01-15T06:21:40;93713.72;;;-2.16;68.34
9774;BME280;4926;42.670;23.316;2024-01-15T06:24:06;93719.53;;;-2.08;68.44
9774;BME280;4926;42.670;23.316;2024-01-15T06:26:31;93716.69;;;-2.26;68.77
9774;BME280;4926;42.670;23.316;2024-01-15T06:28:57;93711.41;;;-2.22;68.82
9774;BME280;4926;42.670;23.316;2024-01-15T06:31:22;93713.91;;;-2.12;68.21
9774;BME280;4926;42.670;23.316;2024-01-15T06:33:48;93717.75;;;-2.17;68.56
9774;BME280;4926;42.670;23.316;2024-01-15T06:36:14;93721.91;;;-2.16;68.76
9774;BME280;4926;42.670;23.316;2024-01-15T06:38:42;93715.13;;;-2.15;68.60
9774;BME280;4926;42.670;23.316;2024-01-15T06:41:08;93716.91;;;-2.06;68.40
9774;BME280;4926;42.670;23.316;2024-01-15T06:43:33;93722.19;;;-1.94;68.11
9774;BME280;4926;42.670;23.316;2024-01-15T06:46:02;93711.63;;;-2.02;67.57
9774;BME280;4926;42.670;23.316;2024-01-15T06:48:27;93724.69;;;-1.85;67.36
9774;BME280;4926;42.670;23.316;2024-01-15T06:50:55;93728.19;;;-1.82;67.13
9774;BME280;4926;42.670;23.316;2024-01-15T06:53:21;93713.59;;;-1.73;67.04
9774;BME280;4926;42.670;23.316;2024-01-15T06:55:47;93727.75;;;-1.76;67.61
9774;BME280;4926;42.670;23.316;2024-01-15T06:58:12;93731.56;;;-1.84;68.18
9774;BME280;4926;42.670;23.316;2024-01-15T07:00:38;93723.34;;;-1.99;68.92
9774;BME280;4926;42.670;23.316;2024-01-15T07:03:03;93733.03;;;-1.81;68.46
9774;BME280;4926;42.670;23.316;2024-01-15T07:05:29;93738.88;;;-1.88;68.82
9774;BME280;4926;42.670;23.316;2024-01-15T07:07:56;93740.91;;;-1.73;68.54
9774;BME280;4926;42.670;23.316;2024-01-15T07:10:21;93737.47;;;-1.73;68.16
9774;BME280;4926;42.670;23.316;2024-01-15T07:12:47;93737.09;;;-1.82;68.18
9774;BME280;4926;42.670;23.316;2024-01-15T07:15:13;93729.06;;;-1.93;68.95
9774;BME280;4926;42.670;23.316;2024-01-15T07:17:38;93744.97;;;-1.74;68.67
9774;BME280;4926;42.670;23.316;2024-01-15T07:20:08;93738.97;;;-1.86;68.33
9774;BME280;4926;42.670;23.316;2024-01-15T07:22:35;93724.16;;;-1.97;69.02
9774;BME280;4926;42.670;23.316;2024-01-15T07:25:04;93729.69;;;-1.95;69.36
9774;BME280;4926;42.670;23.316;2024-01-15T07:27:31;93727.50;;;-1.83;69.28
9774;BME280;4926;42.670;23.316;2024-01-15T07:29:57;93719.91;;;-1.68;68.42
9774;BME280;4926;42.670;23.316;2024-01-15T07:32:23;93716.41;;;-1.55;67.59
9774;BME280;4926;42.670;23.316;2024-01-15T07:34:48;93716.75;;;-1.47;67.01
9774;BME280;4926;42.670;23.316;2024-01-15T07:37:14;93714.13;;;-1.61;68.01
9774;BME280;4926;42.670;23.316;2024-01-15T07:39:40;93710.06;;;-1.60;67.78
9774;BME280;4926;42.670;23.316;2024-01-15T07:42:05;93711.81;;;-1.51;68.22
9774;BME280;4926;42.670;23.316;2024-01-15T07:44:31;93717.88;;;-1.36;67.59
9774;BME280;4926;42.670;23.316;2024-01-15T07:46:57;93734.03;;;-1.27;67.06
9774;BME280;4926;42.670;23.316;2024-01-15T07:49:22;93735.84;;;-1.16;67.04
9774;BME280;4926;42.670;23.316;2024-01-15T07:51:48;93724.09;;;-1.02;66.86
9774;BME280;4926;42.670;23.316;2024-01-15T07:54:14;93743.16;;;-1.04;66.29
9774;BME280;4926;42.670;23.316;2024-01-15T07:57:00;93737.25;;;-0.99;67.15
9774;BME280;4926;42.670;23.316;2024-01-15T07:59:26;93722.03;;;-0.86;65.00
9774;BME280;4926;42.670;23.316;2024-01-15T08:01:52;93696.34;;;-1.13;66.03
9774;BME280;4926;42.670;23.316;2024-01-15T08:04:23;93688.47;;;-1.20;65.64
9774;BME280;4926;42.670;23.316;2024-01-15T08:06:49;93716.94;;;-1.10;66.05
9774;BME280;4926;42.670;23.316;2024-01-15T08:09:14;93692.31;;;-1.43;65.00
9774;BME280;4926;42.670;23.316;2024-01-15T08:11:40;93709.16;;;-1.49;66.10
9774;BME280;4926;42.670;23.316;2024-01-15T08:14:10;93713.13;;;-1.36;66.15
9774;BME280;4926;42.670;23.316;2024-01-15T08:16:36;93719.03;;;-1.41;66.25
9774;BME280;4926;42.670;23.316;2024-01-15T08:19:02;93732.63;;;-1.28;65.21
9774;BME280;4926;42.670;23.316;2024-01-15T08:21:27;93736.22;;;-1.23;65.58
9774;BME280;4926;42.670;23.316;2024-01-15T08:24:02;93720.69;;;-1.19;65.08
9774;BME280;4926;42.670;23.316;2024-01-15T08:26:28;93732.75;;;-1.24;64.07
9774;BME280;4926;42.670;23.316;2024-01-15T08:28:54;93731.91;;;-1.28;66.08
9774;BME280;4926;42.670;23.316;2024-01-15T08:31:20;93726.84;;;-1.18;65.83
9774;BME280;4926;42.670;23.316;2024-01-15T08:33:45;93720.56;;;-1.05;65.04
9774;BME280;4926;42.670;23.316;2024-01-15T08:36:11;93716.13;;;-0.96;64.72
9774;BME280;4926;42.670;23.316;2024-01-15T08:38:37;93701.38;;;-0.89;64.72
9774;BME280;4926;42.670;23.316;2024-01-15T08:41:03;93705.75;;;-0.82;64.35
9774;BME280;4926;42.670;23.316;2024-01-15T08:43:28;93705.78;;;-0.64;64.64
9774;BME280;4926;42.670;23.316;2024-01-15T08:45:56;93692.63;;;-0.68;63.70
9774;BME280;4926;42.670;23.316;2024-01-15T08:48:22;93697.22;;;-0.57;62.86
9774;BME280;4926;42.670;23.316;2024-01-15T08:50:47;93697.34;;;-0.53;63.76
9774;BME280;4926;42.670;23.316;2024-01-15T08:53:13;93695.03;;;-0.43;64.03
9774;BME280;4926;42.670;23.316;2024-01-15T08:55:39;93707.97;;;-0.25;62.74
9774;BME280;4926;42.670;23.316;2024-01-15T08:58:04;93690.53;;;-0.16;63.13
9774;BME280;4926;42.670;23.316;2024-01-15T09:00:31;93706.03;;;-0.05;62.39
9774;BME280;4926;42.670;23.316;2024-01-15T09:02:57;93680.94;;;0.03;62.68
9774;BME280;4926;42.670;23.316;2024-01-15T09:05:22;93663.44;;;-0.08;62.02
9774;BME280;4926;42.670;23.316;2024-01-15T09:07:48;93664.69;;;-0.11;62.08
9774;BME280;4926;42.670;23.316;2024-01-15T09:10:16;93670.94;;;-0.09;62.42
9774;BME280;4926;42.670;23.316;2024-01-15T09:12:42;93658.94;;;0.00;61.85
9774;BME280;4926;42.670;23.316;2024-01-15T09:15:07;93636.91;;;0.16;62.32
9774;BME280;4926;42.670;23.316;2024-01-15T09:17:33;93618.63;;;0.03;61.40
9774;BME280;4926;42.670;23.316;2024-01-15T09:19:59;93625.81;;;0.12;61.56
9774;BME280;4926;42.670;23.316;2024-01-15T09:22:24;93623.28;;;0.18;61.37
9774;BME280;4926;42.670;23.316;2024-01-15T09:24:50;93616.28;;;0.13;61.38
9774;BME280;4926;42.670;23.316;2024-01-15T09:27:15;93632.50;;;0.27;60.31
9774;BME280;4926;42.670;23.316;2024-01-15T09:29:41;93611.63;;;0.38;61.12
9774;BME280;4926;42.670;23.316;2024-01-15T09:32:08;93610.38;;;0.41;61.59
9774;BME280;4926;42.670;23.316;2024-01-15T09:34:34;93606.28;;;0.42;60.41
9774;BME280;4926;42.670;23.316;2024-01-15T09:36:59;93610.56;;;0.47;61.63
9774;BME280;4926;42.670;23.316;2024-01-15T09:39:28;93603.19;;;0.51;60.66
9774;BME280;4926;42.670;23.316;2024-01-15T09:41:54;93601.22;;;0.54;60.42
9774;BME280;4926;42.670;23.316;2024-01-15T09:44:20;93600.44;;;0.51;60.66
9774;BME280;4926;42.670;23.316;2024-01-15T09:46:47;93597.06;;;0.53;60.27
9774;BME280;4926;42.670;23.316;2024-01-15T09:49:15;93574.03;;;0.62;59.80
9774;BME280;4926;42.670;23.316;2024-01-15T09:51:42;93576.72;;;0.60;60.39
9774;BME280;4926;42.670;23.316;2024-01-15T09:54:08;93551.50;;;0.44;60.22
9774;BME280;4926;42.670;23.316;2024-01-15T09:56:35;93552.72;;;0.39;61.18
9774;BME280;4926;42.670;23.316;2024-01-15T09:59:01;93555.66;;;0.45;61.53
9774;BME280;4926;42.670;23.316;2024-01-15T10:01:28;93546.81;;;0.26;61.42
9774;BME280;4926;42.670;23.316;2024-01-15T10:03:54;93564.81;;;0.31;61.82
9774;BME280;4926;42.670;23.316;2024-01-15T10:06:21;93559.19;;;0.27;62.18
9774;BME280;4926;42.670;23.316;2024-01-15T10:08:50;93558.75;;;0.35;62.16
9774;BME280;4926;42.670;23.316;2024-01-15T10:11:16;93561.00;;;0.41;62.04
9774;BME280;4926;42.670;23.316;2024-01-15T10:13:43;93531.34;;;0.57;61.04
9774;BME280;4926;42.670;23.316;2024-01-15T10:16:09;93543.09;;;0.59;61.32
9774;BME280;4926;42.670;23.316;2024-01-15T10:18:35;93508.09;;;0.58;61.59
9774;BME280;4926;42.670;23.316;2024-01-15T10:21:03;93540.94;;;0.56;60.89
9774;BME280;4926;42.670;23.316;2024-01-15T10:23:28;93519.25;;;0.64;61.37
9774;BME280;4926;42.670;23.316;2024-01-15T10:25:56;93521.94;;;0.62;59.84
9774;BME280;4926;42.670;23.316;2024-01-15T10:28:22;93506.63;;;0.77;59.48
9774;BME280;4926;42.670;23.316;2024-01-15T10:30:52;93501.44;;;0.87;58.69
9774;BME280;4926;42.670;23.316;2024-01-15T10:33:22;93499.91;;;1.03;57.66
9774;BME280;4926;42.670;23.316;2024-01-15T10:35:53;93500.59;;;1.26;57.42
9774;BME280;4926;42.670;23.316;2024-01-15T10:38:18;93508.81;;;1.26;56.93
9774;BME280;4926;42.670;23.316;2024-01-15T10:40:48;93483.00;;;1.35;56.88
9774;BME280;4926;42.670;23.316;2024-01-15T10:43:19;93504.25;;;1.34;56.88
9774;BME280;4926;42.670;23.316;2024-01-15T10:45:45;93505.59;;;1.33;57.04
9774;BME280;4926;42.670;23.316;2024-01-15T10:48:12;93505.09;;;1.39;56.19
9774;BME280;4926;42.670;23.316;2024-01-15T10:50:37;93504.31;;;1.36;55.85
9774;BME280;4926;42.670;23.316;2024-01-15T10:53:04;93483.41;;;1.49;55.45
9774;BME280;4926;42.670;23.316;2024-01-15T10:55:33;93476.31;;;1.66;55.50
9774;BME280;4926;42.670;23.316;2024-01-15T10:57:59;93482.59;;;1.70;54.66
9774;BME280;4926;42.670;23.316;2024-01-15T11:00:26;93469.84;;;1.81;55.20
9774;BME280;4926;42.670;23.316;2024-01-15T11:02:52;93483.81;;;1.89;54.92
9774;BME280;4926;42.670;23.316;2024-01-15T11:05:21;93475.75;;;1.97;54.13
9774;BME280;4926;42.670;23.316;2024-01-15T11:07:48;93472.31;;;1.97;55.32
9774;BME280;4926;42.670;23.316;2024-01-15T11:10:51;93468.59;;;2.12;54.61
9774;BME280;4926;42.670;23.316;2024-01-15T11:13:21;93455.75;;;2.21;54.78
9774;BME280;4926;42.670;23.316;2024-01-15T11:16:05;93458.91;;;2.37;54.42
9774;BME280;4926;42.670;23.316;2024-01-15T11:18:37;93461.31;;;2.51;54.32
9774;BME280;4926;42.670;23.316;2024-01-15T11:28:58;93448.44;;;2.89;53.00
9774;BME280;4926;42.670;23.316;2024-01-15T11:31:29;93443.34;;;3.07;52.23
9774;BME280;4926;42.670;23.316;2024-01-15T11:34:14;93449.19;;;3.24;52.20
9774;BME280;4926;42.670;23.316;2024-01-15T11:37:03;93445.53;;;3.45;50.63
9774;BME280;4926;42.670;23.316;2024-01-15T11:41:56;93437.44;;;3.55;51.05
9774;BME280;4926;42.670;23.316;2024-01-15T11:44:22;93437.63;;;3.63;50.61
9774;BME280;4926;42.670;23.316;2024-01-15T11:47:08;93432.13;;;3.65;51.55
9774;BME280;4926;42.670;23.316;2024-01-15T11:49:55;93432.38;;;3.77;50.02
9774;BME280;4926;42.670;23.316;2024-01-15T11:52:23;93433.97;;;3.88;50.29
9774;BME280;4926;42.670;23.316;2024-01-15T11:57:37;93401.13;;;4.03;49.82
9774;BME280;4926;42.670;23.316;2024-01-15T12:00:11;93407.97;;;4.00;50.08
9774;BME280;4926;42.670;23.316;2024-01-15T12:02:42;93416.03;;;3.87;50.63
9774;BME280;4926;42.670;23.316;2024-01-15T12:05:12;93413.97;;;3.88;51.15
9774;BME280;4926;42.670;23.316;2024-01-15T12:07:42;93397.78;;;3.70;50.83
9774;BME280;4926;42.670;23.316;2024-01-15T12:10:09;93401.97;;;3.73;50.62
9774;BME280;4926;42.670;23.316;2024-01-15T12:12:58;93396.50;;;3.75;50.54
9774;BME280;4926;42.670;23.316;2024-01-15T12:15:25;93392.50;;;3.82;51.00
9774;BME280;4926;42.670;23.316;2024-01-15T12:17:52;93373.63;;;3.69;50.17
9774;BME280;4926;42.670;23.316;2024-01-15T12:20:17;93388.81;;;3.34;51.28
9774;BME280;4926;42.670;23.316;2024-01-15T12:22:45;93397.81;;;3.36;52.87
9774;BME280;4926;42.670;23.316;2024-01-15T12:25:11;93371.00;;;3.39;52.28
9774;BME280;4926;42.670;23.316;2024-01-15T12:27:37;93397.53;;;3.22;52.81
9774;BME280;4926;42.670;23.316;2024-01-15T12:30:03;93390.50;;;3.15;51.79
9774;BME280;4926;42.670;23.316;2024-01-15T12:32:29;93390.66;;;3.23;52.10
9774;BME280;4926;42.670;23.316;2024-01-15T12:34:55;93383.09;;;3.24;52.07
9774;BME280;4926;42.670;23.316;2024-01-15T12:37:20;93376.50;;;3.39;51.90
9774;BME280;4926;42.670;23.316;2024-01-15T12:39:46;93382.22;;;3.49;51.42
9774;BME280;4926;42.670;23.316;2024-01-15T12:42:14;93365.81;;;3.55;52.23
9774;BME280;4926;42.670;23.316;2024-01-15T12:44:40;93350.84;;;3.66;51.52
9774;BME280;4926;42.670;23.316;2024-01-15T12:47:06;93368.72;;;3.63;52.33
9774;BME280;4926;42.670;23.316;2024-01-15T12:49:33;93365.31;;;3.67;51.81
9774;BME280;4926;42.670;23.316;2024-01-15T12:51:59;93383.22;;;3.66;51.96
9774;BME280;4926;42.670;23.316;2024-01-15T12:54:25;93356.44;;;3.70;52.23
9774;BME280;4926;42.670;23.316;2024-01-15T12:56:51;93356.84;;;3.54;52.37
9774;BME280;4926;42.670;23.316;2024-01-15T12:59:17;93357.72;;;3.65;51.62
9774;BME280;4926;42.670;23.316;2024-01-15T13:01:44;93352.81;;;3.60;52.03
9774;BME280;4926;42.670;23.316;2024-01-15T13:04:09;93359.09;;;3.64;51.53
9774;BME280;4926;42.670;23.316;2024-01-15T13:06:35;93359.28;;;3.74;52.35
9774;BME280;4926;42.670;23.316;2024-01-15T13:09:04;93343.47;;;3.77;52.76
9774;BME280;4926;42.670;23.316;2024-01-15T13:11:32;93333.13;;;3.77;52.59
9774;BME280;4926;42.670;23.316;2024-01-15T13:13:58;93329.03;;;3.78;52.82
9774;BME280;4926;42.670;23.316;2024-01-15T13:16:27;93334.44;;;3.72;52.07
9774;BME280;4926;42.670;23.316;2024-01-15T13:18:55;93341.41;;;3.77;51.87
9774;BME280;4926;42.670;23.316;2024-01-15T13:21:21;93341.44;;;3.79;51.92
9774;BME280;4926;42.670;23.316;2024-01-15T13:23:47;93337.34;;;3.82;52.41
9774;BME280;4926;42.670;23.316;2024-01-15T13:26:13;93339.28;;;3.74;52.60